Main page
METAR-TAF:

METAR-TAF

Airports :

Indianapolis Executive Airport

Indianapolis, Indiana, United States

latitude: 40-01-50N, longitude: 086-15-05W, elevation: 922 ft

Current weather observation

The report was made 22 minutes ago, at 12:35 UTC
Calm wind
Temperature 72°F
Humidity 94%
Pressure 29.94 in. Hg
Visibility: 10 miles
Overcast at a height of 900 ft

METAR: KTYQ 171235Z AUTO 00000KT 10SM OVC009 22/21 A2994 RMK AO2 LTG DSNT N T02180205

Time: 06:57 (12:57 UTC)


TAF: missing

Weather observations and forecasts of more than 4000 airports (METAR and TAF reports).

The available stations are represented by yellow and red dots on the map.

Hover mouse over dot to see the name of the station.

Then click to see weather observations and forecasts.

To change the map : click on the green buttons with a black cross to zoom in, on the green button with a dash to zoom out, or on the green arrows for adjacent maps.


METAR-TAF: